Time;durP1;ratioP1;P1;durP2;ratioP2;P2;SDS_P1;SDS_P2;PMS_P1;PMS_P2;Temp;Humidity;BMP_temperature;BMP_pressure;BME280_temperature;BME280_humidity;BME280_pressure;Samples;Min_cycle;Max_cycle;Signal;HPM_P1;HPM_P2
2021/09/10 00:01:12;;;;;;;10.68;6.82;;;;;;;;;;4923357;29;20438;-83
2021/09/10 00:03:37;;;;;;;10.07;6.45;;;;;;;;;;4921288;29;20082;-84
2021/09/10 00:06:03;;;;;;;10.10;6.80;;;;;;;;;;4929843;29;20043;-83
2021/09/10 00:08:28;;;;;;;9.45;7.00;;;;;;;;;;4931065;29;20525;-83
2021/09/10 00:10:54;;;;;;;12.30;6.63;;;;;;;;;;4931275;29;20106;-83
2021/09/10 00:13:19;;;;;;;10.27;7.17;;;;;;;;;;4928893;29;20059;-83
2021/09/10 00:15:45;;;;;;;11.73;7.72;;;;;;;;;;4925362;29;20623;-83
2021/09/10 00:18:10;;;;;;;9.25;6.90;;;;;;;;;;4925665;29;20025;-82
2021/09/10 00:20:36;;;;;;;10.40;6.75;;;;;;;;;;4928187;29;20020;-83
2021/09/10 00:23:01;;;;;;;9.38;7.40;;;;;;;;;;4932747;29;20027;-84
2021/09/10 00:25:26;;;;;;;9.33;7.30;;;;;;;;;;4930423;29;20056;-84
2021/09/10 00:27:52;;;;;;;11.65;7.90;;;;;;;;;;4930131;29;20478;-84
2021/09/10 00:30:17;;;;;;;10.25;6.60;;;;;;;;;;4935079;29;20051;-83
2021/09/10 00:32:42;;;;;;;9.45;6.78;;;;;;;;;;4931724;29;20028;-83
2021/09/10 00:35:08;;;;;;;10.70;7.07;;;;;;;;;;4930574;29;20023;-84
2021/09/10 00:37:33;;;;;;;12.50;7.38;;;;;;;;;;4933254;29;20770;-85
2021/09/10 00:39:59;;;;;;;10.63;7.38;;;;;;;;;;4933669;29;20019;-85
2021/09/10 00:42:24;;;;;;;8.10;6.60;;;;;;;;;;4916769;29;20016;-84
2021/09/10 00:44:49;;;;;;;9.87;6.90;;;;;;;;;;4930077;29;20179;-84
2021/09/10 00:47:14;;;;;;;11.33;6.63;;;;;;;;;;4935439;29;20667;-84
2021/09/10 00:49:40;;;;;;;9.32;7.28;;;;;;;;;;4934015;29;20282;-84
2021/09/10 00:52:05;;;;;;;14.77;7.38;;;;;;;;;;4931440;29;20020;-83
2021/09/10 00:54:30;;;;;;;12.50;7.50;;;;;;;;;;4916974;29;20092;-84
2021/09/10 00:56:57;;;;;;;11.73;6.82;;;;;;;;;;4928888;29;20796;-84
2021/09/10 00:59:22;;;;;;;10.88;7.22;;;;;;;;;;4933234;29;20028;-83
2021/09/10 01:01:48;;;;;;;13.53;7.97;;;;;;;;;;4931238;29;20035;-84
2021/09/10 01:04:13;;;;;;;9.80;7.47;;;;;;;;;;4932337;29;20339;-84
2021/09/10 01:06:39;;;;;;;12.38;7.90;;;;;;;;;;4932908;29;20031;-84
2021/09/10 01:09:06;;;;;;;9.02;7.30;;;;;;;;;;4934928;29;20020;-84
2021/09/10 01:11:32;;;;;;;10.57;7.70;;;;;;;;;;4927494;29;20024;-83
2021/09/10 01:13:57;;;;;;;10.70;7.18;;;;;;;;;;4931190;29;20554;-84
2021/09/10 01:16:23;;;;;;;13.80;7.63;;;;;;;;;;4927345;29;20478;-83
2021/09/10 01:18:48;;;;;;;9.23;7.50;;;;;;;;;;4933561;29;20023;-84
2021/09/10 01:21:14;;;;;;;15.52;7.72;;;;;;;;;;4932317;29;20020;-83
2021/09/10 01:23:39;;;;;;;12.02;7.43;;;;;;;;;;4927360;29;20075;-84
2021/09/10 01:26:05;;;;;;;10.37;6.90;;;;;;;;;;4910483;29;20021;-84
2021/09/10 01:28:30;;;;;;;9.07;7.03;;;;;;;;;;4934967;29;20030;-84
2021/09/10 01:30:55;;;;;;;10.40;6.88;;;;;;;;;;4934153;29;20064;-83
2021/09/10 01:33:21;;;;;;;11.32;7.65;;;;;;;;;;4926747;29;20031;-83
2021/09/10 01:35:46;;;;;;;9.32;6.93;;;;;;;;;;4928696;29;20027;-84
2021/09/10 01:38:12;;;;;;;10.80;8.18;;;;;;;;;;4913128;29;20047;-84
2021/09/10 01:40:37;;;;;;;11.75;7.90;;;;;;;;;;4932608;29;20066;-84
2021/09/10 01:43:03;;;;;;;12.80;8.18;;;;;;;;;;4930122;29;20663;-84
2021/09/10 01:45:28;;;;;;;9.32;7.03;;;;;;;;;;4932094;29;20030;-82
2021/09/10 01:47:54;;;;;;;9.37;7.40;;;;;;;;;;4932352;29;20034;-82
2021/09/10 01:50:20;;;;;;;14.73;8.27;;;;;;;;;;4933776;29;20306;-83
2021/09/10 01:52:45;;;;;;;13.52;7.82;;;;;;;;;;4931132;29;20106;-82
2021/09/10 01:55:14;;;;;;;9.90;7.57;;;;;;;;;;4931737;29;20038;-83
2021/09/10 01:57:41;;;;;;;10.30;7.65;;;;;;;;;;4913291;29;20409;-82
2021/09/10 02:00:06;;;;;;;9.80;8.05;;;;;;;;;;4932820;29;20280;-83
2021/09/10 02:02:32;;;;;;;9.40;7.40;;;;;;;;;;4931321;29;20030;-83
2021/09/10 02:04:57;;;;;;;10.43;7.85;;;;;;;;;;4929259;29;20128;-83
2021/09/10 02:07:22;;;;;;;10.85;7.28;;;;;;;;;;4927776;29;20055;-82
2021/09/10 02:09:48;;;;;;;9.87;7.03;;;;;;;;;;4930291;29;20031;-82
2021/09/10 02:12:13;;;;;;;10.30;7.80;;;;;;;;;;4924608;29;20028;-82
2021/09/10 02:14:38;;;;;;;9.25;7.47;;;;;;;;;;4925714;29;20287;-83
2021/09/10 02:17:04;;;;;;;15.63;8.27;;;;;;;;;;4932393;29;20015;-82
2021/09/10 02:19:30;;;;;;;10.63;8.15;;;;;;;;;;4932010;29;20030;-83
2021/09/10 02:21:55;;;;;;;8.85;7.20;;;;;;;;;;4929762;29;20027;-82
2021/09/10 02:24:21;;;;;;;10.27;8.18;;;;;;;;;;4926484;29;20020;-82
2021/09/10 02:26:47;;;;;;;10.57;7.43;;;;;;;;;;4931053;29;20439;-84
2021/09/10 02:29:13;;;;;;;8.43;6.65;;;;;;;;;;4933771;29;20550;-86
2021/09/10 02:31:40;;;;;;;11.20;7.15;;;;;;;;;;4931936;29;20035;-84
2021/09/10 02:34:05;;;;;;;10.23;7.53;;;;;;;;;;4913199;29;20047;-84
2021/09/10 02:36:30;;;;;;;10.38;8.40;;;;;;;;;;4930719;29;20047;-83
2021/09/10 02:38:56;;;;;;;10.65;8.57;;;;;;;;;;4928105;29;20083;-83
2021/09/10 02:41:21;;;;;;;14.65;8.13;;;;;;;;;;4931092;29;20098;-83
2021/09/10 02:43:46;;;;;;;9.43;7.90;;;;;;;;;;4922566;29;20023;-84
2021/09/10 02:46:11;;;;;;;9.70;7.28;;;;;;;;;;4929191;29;20034;-85
2021/09/10 02:48:36;;;;;;;11.20;7.40;;;;;;;;;;4925433;29;20126;-84
2021/09/10 02:51:02;;;;;;;14.00;7.82;;;;;;;;;;4915404;29;20043;-84
2021/09/10 02:53:27;;;;;;;10.55;7.13;;;;;;;;;;4926151;29;20028;-84
2021/09/10 02:55:53;;;;;;;9.83;7.07;;;;;;;;;;4930324;29;20027;-83
2021/09/10 02:58:18;;;;;;;10.85;7.93;;;;;;;;;;4927614;29;20838;-83
2021/09/10 03:00:43;;;;;;;12.43;7.90;;;;;;;;;;4932165;29;20031;-84
2021/09/10 03:03:08;;;;;;;10.47;7.70;;;;;;;;;;4928477;29;20035;-84
2021/09/10 03:05:34;;;;;;;9.27;7.37;;;;;;;;;;4924000;29;20825;-84
2021/09/10 03:07:59;;;;;;;10.13;7.63;;;;;;;;;;4915187;29;20103;-85
2021/09/10 03:10:24;;;;;;;9.45;7.57;;;;;;;;;;4930507;29;20745;-85
2021/09/10 03:12:50;;;;;;;12.02;7.90;;;;;;;;;;4912461;29;20038;-84
2021/09/10 03:15:15;;;;;;;8.77;7.03;;;;;;;;;;4928269;29;20505;-83
2021/09/10 03:17:41;;;;;;;11.15;7.72;;;;;;;;;;4931445;29;20023;-84
2021/09/10 03:20:06;;;;;;;9.88;7.88;;;;;;;;;;4912954;29;20028;-84
2021/09/10 03:22:31;;;;;;;10.32;7.25;;;;;;;;;;4931643;29;20486;-84
2021/09/10 03:24:57;;;;;;;10.10;7.73;;;;;;;;;;4929737;29;20111;-84
2021/09/10 03:27:22;;;;;;;12.77;8.77;;;;;;;;;;4930132;29;20553;-85
2021/09/10 03:29:47;;;;;;;11.27;8.57;;;;;;;;;;4927836;29;20035;-84
2021/09/10 03:32:13;;;;;;;12.38;7.95;;;;;;;;;;4930821;29;20020;-84
2021/09/10 03:34:38;;;;;;;12.33;7.70;;;;;;;;;;4923895;29;20479;-84
2021/09/10 03:37:04;;;;;;;11.90;8.38;;;;;;;;;;4931722;29;20024;-83
2021/09/10 03:39:29;;;;;;;11.02;7.82;;;;;;;;;;4924680;29;20020;-84
2021/09/10 03:41:54;;;;;;;11.47;7.80;;;;;;;;;;4926690;29;20020;-84
2021/09/10 03:44:19;;;;;;;11.33;8.47;;;;;;;;;;4908675;29;20047;-85
2021/09/10 03:46:45;;;;;;;9.60;7.70;;;;;;;;;;4925890;29;20801;-85
2021/09/10 03:49:10;;;;;;;13.88;9.15;;;;;;;;;;4914836;29;20028;-85
2021/09/10 03:51:35;;;;;;;9.63;7.70;;;;;;;;;;4929389;29;20028;-84
2021/09/10 03:54:01;;;;;;;9.50;7.57;;;;;;;;;;4925329;29;20283;-84
2021/09/10 03:56:26;;;;;;;11.30;7.43;;;;;;;;;;4929847;29;20095;-84
2021/09/10 03:58:51;;;;;;;13.60;8.10;;;;;;;;;;4934368;29;20027;-84
2021/09/10 04:01:18;;;;;;;10.13;8.50;;;;;;;;;;4932528;29;20075;-83
2021/09/10 04:03:43;;;;;;;10.70;6.97;;;;;;;;;;4934468;29;20400;-83
2021/09/10 04:06:09;;;;;;;11.77;7.38;;;;;;;;;;4928641;29;20028;-82
2021/09/10 04:08:35;;;;;;;10.05;8.32;;;;;;;;;;4936278;29;20549;-84
2021/09/10 04:11:00;;;;;;;11.40;8.38;;;;;;;;;;4936298;29;20099;-82
2021/09/10 04:13:25;;;;;;;11.23;8.50;;;;;;;;;;4931239;29;20020;-84
2021/09/10 04:15:51;;;;;;;11.20;7.80;;;;;;;;;;4933533;29;20860;-83
2021/09/10 04:18:16;;;;;;;13.27;8.67;;;;;;;;;;4934052;29;20217;-84
2021/09/10 04:20:41;;;;;;;9.50;7.13;;;;;;;;;;4917033;29;20037;-84
2021/09/10 04:23:06;;;;;;;11.25;8.60;;;;;;;;;;4934602;29;20476;-83
2021/09/10 04:25:32;;;;;;;11.50;7.73;;;;;;;;;;4934526;29;20012;-84
2021/09/10 04:27:57;;;;;;;11.93;8.70;;;;;;;;;;4930467;29;20283;-83
2021/09/10 04:30:22;;;;;;;12.03;9.00;;;;;;;;;;4933425;29;20031;-84
2021/09/10 04:32:48;;;;;;;11.50;8.02;;;;;;;;;;4935495;29;20279;-84
2021/09/10 04:35:14;;;;;;;12.03;8.00;;;;;;;;;;4934956;29;20023;-82
2021/09/10 04:37:40;;;;;;;11.43;8.45;;;;;;;;;;4931939;29;21943;-83
2021/09/10 04:40:09;;;;;;;12.75;8.57;;;;;;;;;;4936574;29;20378;-82
2021/09/10 04:42:35;;;;;;;10.95;8.38;;;;;;;;;;4927488;29;20381;-82
2021/09/10 04:45:00;;;;;;;12.40;8.70;;;;;;;;;;4937005;29;20024;-82
2021/09/10 04:47:26;;;;;;;10.95;7.90;;;;;;;;;;4937149;29;20382;-84
2021/09/10 04:49:51;;;;;;;13.23;8.30;;;;;;;;;;4931766;29;20024;-83
2021/09/10 04:52:17;;;;;;;12.80;9.25;;;;;;;;;;4931382;29;20031;-84
2021/09/10 04:54:42;;;;;;;10.63;8.60;;;;;;;;;;4932563;29;20059;-84
2021/09/10 04:57:07;;;;;;;11.13;9.03;;;;;;;;;;4931092;29;20271;-85
2021/09/10 04:59:32;;;;;;;10.45;8.27;;;;;;;;;;4930894;29;20016;-84
2021/09/10 05:01:58;;;;;;;11.63;8.63;;;;;;;;;;4915592;29;20024;-84
2021/09/10 05:04:24;;;;;;;10.15;8.70;;;;;;;;;;4932761;29;20631;-84
2021/09/10 05:06:50;;;;;;;12.10;8.13;;;;;;;;;;4916129;29;20027;-85
2021/09/10 05:09:15;;;;;;;12.70;9.07;;;;;;;;;;4930096;29;20550;-84
2021/09/10 05:11:41;;;;;;;12.00;8.32;;;;;;;;;;4921154;29;20398;-86
2021/09/10 05:14:09;;;;;;;9.75;8.75;;;;;;;;;;4908832;29;20027;-86
2021/09/10 05:16:34;;;;;;;13.32;9.02;;;;;;;;;;4928234;29;20023;-85
2021/09/10 05:18:59;;;;;;;12.18;9.02;;;;;;;;;;4915086;29;20032;-83
2021/09/10 05:21:24;;;;;;;11.32;9.38;;;;;;;;;;4928269;29;20047;-83
2021/09/10 05:23:50;;;;;;;14.97;9.57;;;;;;;;;;4928637;29;20043;-84
2021/09/10 05:26:15;;;;;;;11.13;8.27;;;;;;;;;;4930916;29;20031;-83
2021/09/10 05:28:40;;;;;;;11.48;8.60;;;;;;;;;;4929565;29;20032;-85
2021/09/10 05:31:06;;;;;;;13.25;9.23;;;;;;;;;;4927034;29;20027;-84
2021/09/10 05:33:31;;;;;;;14.48;9.93;;;;;;;;;;4915245;29;20020;-86
2021/09/10 05:35:57;;;;;;;11.15;9.02;;;;;;;;;;4933989;29;20020;-86
2021/09/10 05:38:22;;;;;;;11.68;8.23;;;;;;;;;;4925913;29;20020;-83
2021/09/10 05:40:48;;;;;;;11.77;9.30;;;;;;;;;;4927940;29;20028;-84
2021/09/10 05:43:13;;;;;;;13.95;8.98;;;;;;;;;;4926412;29;20474;-81
2021/09/10 05:45:38;;;;;;;15.20;9.73;;;;;;;;;;4924424;29;20522;-83
2021/09/10 05:48:04;;;;;;;29.67;23.70;;;;;;;;;;4916943;29;21037;-81
2021/09/10 05:50:29;;;;;;;18.10;15.68;;;;;;;;;;4933311;29;20019;-82
2021/09/10 05:52:54;;;;;;;12.75;9.65;;;;;;;;;;4942771;29;20478;-83
2021/09/10 05:55:20;;;;;;;13.20;9.30;;;;;;;;;;4938859;29;20035;-80
2021/09/10 05:57:45;;;;;;;11.77;9.17;;;;;;;;;;4930027;29;20030;-82
2021/09/10 06:00:11;;;;;;;13.93;8.07;;;;;;;;;;4929841;29;20012;-82
2021/09/10 06:02:40;;;;;;;12.18;8.73;;;;;;;;;;4926220;29;20651;-83
2021/09/10 06:05:05;;;;;;;11.90;9.48;;;;;;;;;;4926644;29;20043;-84
2021/09/10 06:07:31;;;;;;;12.07;8.60;;;;;;;;;;4924135;29;20559;-81
2021/09/10 06:09:57;;;;;;;11.80;8.88;;;;;;;;;;4926690;29;20035;-81
2021/09/10 06:12:23;;;;;;;12.32;7.80;;;;;;;;;;4929414;29;20023;-82
2021/09/10 06:14:48;;;;;;;10.88;8.63;;;;;;;;;;4926669;29;20382;-82
2021/09/10 06:17:14;;;;;;;12.07;8.18;;;;;;;;;;4920691;29;20020;-80
2021/09/10 06:19:39;;;;;;;12.93;9.07;;;;;;;;;;4917660;29;20023;-79
2021/09/10 06:22:04;;;;;;;10.20;8.43;;;;;;;;;;4912073;29;20048;-82
2021/09/10 06:24:29;;;;;;;12.80;8.10;;;;;;;;;;4922341;29;20038;-82
2021/09/10 06:26:57;;;;;;;25.95;23.15;;;;;;;;;;4928569;29;20032;-80
2021/09/10 06:29:41;;;;;;;23.85;20.73;;;;;;;;;;4924929;29;20030;-81
2021/09/10 06:32:06;;;;;;;12.18;9.63;;;;;;;;;;4928147;29;20402;-82
2021/09/10 06:34:32;;;;;;;11.30;8.30;;;;;;;;;;4929019;29;20744;-81
2021/09/10 06:36:57;;;;;;;14.48;9.50;;;;;;;;;;4922293;29;20525;-82
2021/09/10 06:39:22;;;;;;;12.37;8.73;;;;;;;;;;4924657;29;20107;-82
2021/09/10 06:41:48;;;;;;;11.10;8.33;;;;;;;;;;4910603;29;20055;-82
2021/09/10 06:44:13;;;;;;;12.82;8.50;;;;;;;;;;4928183;29;20636;-83
2021/09/10 06:46:38;;;;;;;12.48;8.48;;;;;;;;;;4930070;29;20038;-83
2021/09/10 06:49:04;;;;;;;12.18;8.07;;;;;;;;;;4927376;29;20031;-82
2021/09/10 06:51:30;;;;;;;11.73;8.10;;;;;;;;;;4925540;29;20031;-82
2021/09/10 06:53:55;;;;;;;20.95;15.48;;;;;;;;;;4909531;29;20023;-82
2021/09/10 06:56:20;;;;;;;13.75;11.15;;;;;;;;;;4913894;29;20019;-82
2021/09/10 06:58:46;;;;;;;11.07;8.93;;;;;;;;;;4929942;29;20059;-83
2021/09/10 07:01:11;;;;;;;16.27;8.50;;;;;;;;;;4927094;29;20035;-82
2021/09/10 07:03:37;;;;;;;12.93;7.82;;;;;;;;;;4924460;29;20028;-83
2021/09/10 07:06:02;;;;;;;10.48;8.15;;;;;;;;;;4932208;29;20139;-82
2021/09/10 07:08:28;;;;;;;11.23;7.18;;;;;;;;;;4930997;29;20028;-82
2021/09/10 07:10:54;;;;;;;9.95;7.15;;;;;;;;;;4922627;29;20034;-82
2021/09/10 07:13:20;;;;;;;10.98;6.88;;;;;;;;;;4926422;29;20028;-87
2021/09/10 07:15:45;;;;;;;13.10;7.30;;;;;;;;;;4930723;29;20020;-81
2021/09/10 07:18:10;;;;;;;11.38;7.05;;;;;;;;;;4928027;29;20024;-82
2021/09/10 07:20:35;;;;;;;12.80;7.70;;;;;;;;;;4913778;29;20031;-82
2021/09/10 07:23:01;;;;;;;13.18;7.95;;;;;;;;;;4913052;29;22141;-82
2021/09/10 07:25:26;;;;;;;11.13;7.67;;;;;;;;;;4925374;29;20042;-82
2021/09/10 07:27:51;;;;;;;12.87;7.97;;;;;;;;;;4928438;29;20024;-81
2021/09/10 07:30:16;;;;;;;9.90;7.30;;;;;;;;;;4930822;29;20744;-81
2021/09/10 07:32:42;;;;;;;12.53;8.03;;;;;;;;;;4928347;29;20127;-82
2021/09/10 07:35:07;;;;;;;14.85;7.32;;;;;;;;;;4927936;29;20351;-82
2021/09/10 07:37:33;;;;;;;10.77;7.38;;;;;;;;;;4923782;29;20020;-82
2021/09/10 07:39:58;;;;;;;13.45;8.38;;;;;;;;;;4928575;29;20023;-81
2021/09/10 07:42:24;;;;;;;14.15;7.88;;;;;;;;;;4926311;29;20020;-81
2021/09/10 07:44:49;;;;;;;9.63;7.60;;;;;;;;;;4903921;29;20063;-83
2021/09/10 07:47:15;;;;;;;12.00;7.80;;;;;;;;;;4921906;29;20016;-87
2021/09/10 07:49:41;;;;;;;10.45;6.90;;;;;;;;;;4930490;29;20024;-87
2021/09/10 07:52:06;;;;;;;10.13;6.78;;;;;;;;;;4907815;29;20386;-85
2021/09/10 07:54:31;;;;;;;9.80;6.30;;;;;;;;;;4922825;29;20028;-84
2021/09/10 07:56:57;;;;;;;7.72;6.53;;;;;;;;;;4929077;29;20058;-84
2021/09/10 07:59:22;;;;;;;16.27;6.78;;;;;;;;;;4924373;29;20100;-86
2021/09/10 08:01:48;;;;;;;8.47;6.37;;;;;;;;;;4932145;29;20024;-86
2021/09/10 08:04:13;;;;;;;9.23;6.45;;;;;;;;;;4924618;29;20318;-86
2021/09/10 08:06:38;;;;;;;9.43;6.60;;;;;;;;;;4929744;29;20038;-85
2021/09/10 08:09:04;;;;;;;9.38;6.85;;;;;;;;;;4930992;29;20355;-88
2021/09/10 08:11:30;;;;;;;10.43;7.32;;;;;;;;;;4917647;29;20031;-87
2021/09/10 08:13:56;;;;;;;8.00;5.78;;;;;;;;;;4930328;29;20035;-84
2021/09/10 08:16:21;;;;;;;9.20;6.50;;;;;;;;;;4928916;29;20381;-85
2021/09/10 08:18:46;;;;;;;9.03;5.97;;;;;;;;;;4926259;29;20020;-86
2021/09/10 08:21:15;;;;;;;7.67;6.03;;;;;;;;;;4933573;29;20032;-88
2021/09/10 08:23:40;;;;;;;10.52;6.28;;;;;;;;;;4931835;29;20283;-89
2021/09/10 08:26:05;;;;;;;6.95;5.60;;;;;;;;;;4931893;29;20122;-86
2021/09/10 08:28:31;;;;;;;10.10;6.03;;;;;;;;;;4924997;29;20434;-86
2021/09/10 08:30:56;;;;;;;10.10;6.43;;;;;;;;;;4930381;29;20023;-86
2021/09/10 08:33:23;;;;;;;13.98;6.47;;;;;;;;;;4928511;29;20103;-83
2021/09/10 08:35:49;;;;;;;8.65;6.82;;;;;;;;;;4928509;29;20727;-87
2021/09/10 08:38:15;;;;;;;13.25;11.07;;;;;;;;;;4914785;29;20052;-87
2021/09/10 08:40:40;;;;;;;14.38;10.75;;;;;;;;;;4899661;29;20048;-84
2021/09/10 08:43:06;;;;;;;10.43;7.72;;;;;;;;;;4926928;29;20031;-84
2021/09/10 08:45:31;;;;;;;7.82;6.10;;;;;;;;;;4926169;29;20382;-85
2021/09/10 08:47:57;;;;;;;11.50;6.10;;;;;;;;;;4931100;29;20078;-86
2021/09/10 08:50:24;;;;;;;9.48;6.13;;;;;;;;;;4931004;29;20512;-87
2021/09/10 08:52:50;;;;;;;7.30;5.72;;;;;;;;;;4929047;29;20430;-86
2021/09/10 08:55:16;;;;;;;9.90;6.90;;;;;;;;;;4929100;29;20015;-84
2021/09/10 08:57:52;;;;;;;8.73;6.38;;;;;;;;;;4913594;29;21535;-84
2021/09/10 09:00:18;;;;;;;11.38;6.60;;;;;;;;;;4927004;29;20103;-83
2021/09/10 09:03:00;;;;;;;6.82;5.78;;;;;;;;;;4934127;29;20435;-87
2021/09/10 09:05:26;;;;;;;7.70;5.93;;;;;;;;;;4924060;29;20391;-85
2021/09/10 09:08:05;;;;;;;8.55;6.13;;;;;;;;;;4933294;29;20028;-84
2021/09/10 09:10:49;;;;;;;10.40;6.13;;;;;;;;;;4932976;29;20353;-84
2021/09/10 09:13:14;;;;;;;9.55;5.80;;;;;;;;;;4933232;29;20262;-83
2021/09/10 09:15:40;;;;;;;7.25;5.57;;;;;;;;;;4931978;29;20186;-86
2021/09/10 09:18:05;;;;;;;11.18;6.32;;;;;;;;;;4930505;29;20024;-84
2021/09/10 09:20:30;;;;;;;10.57;6.65;;;;;;;;;;4929638;29;20111;-85
2021/09/10 09:22:56;;;;;;;8.45;6.18;;;;;;;;;;4928392;29;20470;-85
2021/09/10 09:25:25;;;;;;;7.80;5.80;;;;;;;;;;4923339;29;20031;-82
2021/09/10 09:27:50;;;;;;;6.30;5.70;;;;;;;;;;4932062;29;20051;-84
2021/09/10 09:30:39;;;;;;;12.27;5.80;;;;;;;;;;4928891;29;20048;-84
2021/09/10 09:33:05;;;;;;;7.43;5.55;;;;;;;;;;4925805;29;20055;-85
2021/09/10 09:35:31;;;;;;;9.55;5.40;;;;;;;;;;4933747;29;20036;-84
2021/09/10 09:37:56;;;;;;;8.00;5.97;;;;;;;;;;4927269;29;20023;-81
2021/09/10 09:40:30;;;;;;;9.33;7.57;;;;;;;;;;4927636;29;20023;-84
2021/09/10 09:42:55;;;;;;;10.43;6.65;;;;;;;;;;4932723;29;20024;-82
2021/09/10 09:45:23;;;;;;;8.87;5.80;;;;;;;;;;4927673;29;20031;-81
2021/09/10 09:47:48;;;;;;;10.80;6.30;;;;;;;;;;4931938;29;20711;-82
2021/09/10 09:50:14;;;;;;;45.53;26.05;;;;;;;;;;4931924;29;20031;-86
2021/09/10 09:52:40;;;;;;;21.27;15.35;;;;;;;;;;4932757;29;20471;-88
2021/09/10 09:55:06;;;;;;;52.95;33.97;;;;;;;;;;4923377;29;20047;-89
2021/09/10 09:57:33;;;;;;;8.63;7.15;;;;;;;;;;4925780;29;20352;-87
2021/09/10 10:00:02;;;;;;;40.65;27.77;;;;;;;;;;4930933;29;20028;-84
2021/09/10 10:02:27;;;;;;;48.28;34.97;;;;;;;;;;4931141;29;20024;-82
2021/09/10 10:04:55;;;;;;;20.75;16.70;;;;;;;;;;4929178;29;20050;-82
2021/09/10 10:07:20;;;;;;;26.05;19.63;;;;;;;;;;4929865;29;20055;-82
2021/09/10 10:09:48;;;;;;;15.63;12.65;;;;;;;;;;4928004;29;20038;-82
2021/09/10 10:12:15;;;;;;;29.83;19.37;;;;;;;;;;4927360;29;20386;-82
2021/09/10 10:14:40;;;;;;;29.58;23.08;;;;;;;;;;4913010;29;20639;-83
2021/09/10 10:17:25;;;;;;;36.85;27.30;;;;;;;;;;4930678;29;20051;-82
2021/09/10 10:19:51;;;;;;;15.65;10.60;;;;;;;;;;4926642;29;20256;-82
2021/09/10 10:22:30;;;;;;;17.10;10.38;;;;;;;;;;4928084;29;20123;-82
2021/09/10 10:24:55;;;;;;;;;;;;;;;;;;4924334;29;20568;-82
2021/09/10 10:27:28;;;;;;;17.93;13.83;;;;;;;;;;4927203;29;19911;-84
2021/09/10 10:29:53;;;;;;;16.30;11.05;;;;;;;;;;4924163;29;20032;-83
2021/09/10 10:32:37;;;;;;;10.60;7.78;;;;;;;;;;4927345;29;20023;-84
2021/09/10 10:35:18;;;;;;;9.52;6.38;;;;;;;;;;4924077;29;20372;-83
2021/09/10 10:37:51;;;;;;;10.35;7.78;;;;;;;;;;4911397;29;20024;-84
2021/09/10 10:40:27;;;;;;;17.25;11.75;;;;;;;;;;4922797;29;20035;-84
2021/09/10 10:42:53;;;;;;;7.93;6.63;;;;;;;;;;4932782;29;20019;-83
2021/09/10 10:45:37;;;;;;;12.07;8.30;;;;;;;;;;4913058;29;20055;-85
2021/09/10 10:48:02;;;;;;;12.32;9.32;;;;;;;;;;4918713;29;20027;-83
2021/09/10 10:50:31;;;;;;;7.13;6.10;;;;;;;;;;4928263;29;20084;-86
2021/09/10 10:52:56;;;;;;;;;;;;;;;;;;4923045;29;20267;-86
2021/09/10 10:55:29;;;;;;;11.60;9.30;;;;;;;;;;4912116;29;19971;-84
2021/09/10 10:58:15;;;;;;;10.95;8.30;;;;;;;;;;4926453;29;20387;-88
2021/09/10 11:00:44;;;;;;;9.18;7.40;;;;;;;;;;4933632;29;20043;-84
2021/09/10 11:03:12;;;;;;;10.23;6.20;;;;;;;;;;4940396;29;20062;-86
2021/09/10 11:05:38;;;;;;;8.88;7.22;;;;;;;;;;4939378;29;20044;-85
2021/09/10 11:08:03;;;;;;;7.95;5.88;;;;;;;;;;4945446;29;20032;-88
2021/09/10 11:10:29;;;;;;;10.45;7.68;;;;;;;;;;4944798;29;20015;-88
2021/09/10 11:12:55;;;;;;;7.97;5.82;;;;;;;;;;4945085;29;20080;-87
2021/09/10 11:15:20;;;;;;;8.00;5.97;;;;;;;;;;4932164;29;20042;-86
2021/09/10 11:17:53;;;;;;;11.57;6.95;;;;;;;;;;4923327;29;20058;-85
2021/09/10 11:20:35;;;;;;;8.65;6.35;;;;;;;;;;4933820;29;20375;-83
2021/09/10 11:23:01;;;;;;;7.55;6.03;;;;;;;;;;4924815;29;20023;-83
2021/09/10 11:25:27;;;;;;;7.15;5.93;;;;;;;;;;4921403;29;20142;-83
2021/09/10 11:27:52;;;;;;;9.23;6.13;;;;;;;;;;4929015;29;20483;-83
2021/09/10 11:30:18;;;;;;;7.65;5.78;;;;;;;;;;4923616;29;20268;-83
2021/09/10 11:32:43;;;;;;;6.93;6.13;;;;;;;;;;4912802;29;20035;-82
2021/09/10 11:35:18;;;;;;;9.83;5.83;;;;;;;;;;4932014;29;20038;-82
2021/09/10 11:37:50;;;;;;;8.25;5.63;;;;;;;;;;4924456;29;20030;-83
2021/09/10 11:40:15;;;;;;;7.38;5.63;;;;;;;;;;4907018;29;20110;-83
2021/09/10 11:42:42;;;;;;;7.78;6.35;;;;;;;;;;4925128;29;20152;-83
2021/09/10 11:45:08;;;;;;;8.85;6.43;;;;;;;;;;4930708;29;20449;-83
2021/09/10 11:47:34;;;;;;;10.15;6.40;;;;;;;;;;4920652;29;20565;-83
2021/09/10 11:50:00;;;;;;;11.70;6.50;;;;;;;;;;4927308;29;20023;-82
2021/09/10 11:52:32;;;;;;;10.65;8.88;;;;;;;;;;4914541;29;20039;-82
2021/09/10 11:55:11;;;;;;;11.00;7.05;;;;;;;;;;4921451;29;20115;-83
2021/09/10 11:57:36;;;;;;;;;;;;;;;;;;4931652;29;20370;-83
2021/09/10 12:00:03;;;;;;;9.17;5.93;;;;;;;;;;4929981;29;19910;-85
2021/09/10 12:02:28;;;;;;;10.63;6.10;;;;;;;;;;4928039;29;20256;-89
2021/09/10 12:04:55;;;;;;;8.00;6.65;;;;;;;;;;4914373;29;20653;-87
2021/09/10 12:07:30;;;;;;;9.10;6.22;;;;;;;;;;4930107;29;20027;-85
2021/09/10 12:10:03;;;;;;;9.07;6.75;;;;;;;;;;4928963;29;20107;-85
2021/09/10 12:12:35;;;;;;;9.32;6.45;;;;;;;;;;4914437;29;20367;-84
2021/09/10 12:15:02;;;;;;;8.70;7.03;;;;;;;;;;4931002;29;20386;-85
2021/09/10 12:17:27;;;;;;;8.02;6.47;;;;;;;;;;4931057;29;20012;-83
2021/09/10 12:20:09;;;;;;;7.38;6.03;;;;;;;;;;4934495;29;20028;-85
2021/09/10 12:22:40;;;;;;;8.88;6.47;;;;;;;;;;4933592;29;20506;-84
2021/09/10 12:25:26;;;;;;;8.95;6.55;;;;;;;;;;4932131;29;20584;-84
2021/09/10 12:28:07;;;;;;;9.55;6.32;;;;;;;;;;4930170;29;20040;-83
2021/09/10 12:30:48;;;;;;;11.82;6.63;;;;;;;;;;4934423;29;20028;-84
2021/09/10 12:33:17;;;;;;;8.40;6.88;;;;;;;;;;4928825;29;20419;-85
2021/09/10 12:35:43;;;;;;;8.60;6.30;;;;;;;;;;4919810;29;20051;-86
2021/09/10 12:38:21;;;;;;;10.00;6.45;;;;;;;;;;4932741;29;20102;-85
2021/09/10 12:40:48;;;;;;;8.85;6.80;;;;;;;;;;4926447;29;20028;-83
2021/09/10 12:43:14;;;;;;;14.55;12.45;;;;;;;;;;4934018;29;20236;-85
2021/09/10 12:45:40;;;;;;;9.35;6.88;;;;;;;;;;4930409;29;20114;-83
2021/09/10 12:48:06;;;;;;;7.05;5.85;;;;;;;;;;4916678;29;20020;-83
2021/09/10 12:50:35;;;;;;;7.93;6.25;;;;;;;;;;4927090;29;20056;-84
2021/09/10 12:53:00;;;;;;;7.68;5.90;;;;;;;;;;4930145;29;20027;-85
2021/09/10 12:55:26;;;;;;;8.38;6.35;;;;;;;;;;4932870;29;20028;-88
2021/09/10 12:57:54;;;;;;;8.10;6.30;;;;;;;;;;4915889;29;20374;-89
2021/09/10 13:00:21;;;;;;;9.93;6.75;;;;;;;;;;4915848;29;20031;-86
2021/09/10 13:02:47;;;;;;;9.38;7.20;;;;;;;;;;4929362;29;20099;-86
2021/09/10 13:05:12;;;;;;;7.40;6.18;;;;;;;;;;4916359;29;20439;-85
2021/09/10 13:07:38;;;;;;;9.40;6.80;;;;;;;;;;4932140;29;20035;-89
2021/09/10 13:10:04;;;;;;;7.63;6.28;;;;;;;;;;4924988;29;20027;-91
2021/09/10 13:12:35;;;;;;;10.95;6.38;;;;;;;;;;4933233;29;20016;-91
2021/09/10 13:15:00;;;;;;;10.45;6.53;;;;;;;;;;4925822;29;20102;-88
2021/09/10 13:17:44;;;;;;;8.55;6.07;;;;;;;;;;4927529;29;20475;-89
2021/09/10 13:20:10;;;;;;;8.75;6.70;;;;;;;;;;4923693;29;20020;-89
2021/09/10 13:22:35;;;;;;;8.15;6.05;;;;;;;;;;4923980;29;20595;-83
2021/09/10 13:25:00;;;;;;;7.95;5.65;;;;;;;;;;4930953;29;20038;-86
2021/09/10 13:27:26;;;;;;;8.00;6.78;;;;;;;;;;4913443;29;20034;-83
2021/09/10 13:29:51;;;;;;;8.68;6.40;;;;;;;;;;4934570;29;20032;-86
2021/09/10 13:32:17;;;;;;;8.85;6.47;;;;;;;;;;4934417;29;20362;-85
2021/09/10 13:34:42;;;;;;;7.57;6.38;;;;;;;;;;4931749;29;20110;-84
2021/09/10 13:37:14;;;;;;;6.38;5.05;;;;;;;;;;4931646;29;20648;-84
2021/09/10 13:39:42;;;;;;;7.68;5.55;;;;;;;;;;4929552;29;20032;-86
2021/09/10 13:42:07;;;;;;;6.63;5.55;;;;;;;;;;4928820;29;20487;-86
2021/09/10 13:44:32;;;;;;;8.60;5.30;;;;;;;;;;4934724;29;20024;-87
2021/09/10 13:46:58;;;;;;;6.80;5.30;;;;;;;;;;4934716;29;20488;-85
2021/09/10 13:49:23;;;;;;;8.03;5.50;;;;;;;;;;4933983;29;20055;-83
2021/09/10 13:51:48;;;;;;;7.72;5.60;;;;;;;;;;4930513;29;20042;-86
2021/09/10 13:54:14;;;;;;;8.10;5.47;;;;;;;;;;4932575;29;20082;-86
2021/09/10 13:56:39;;;;;;;7.27;5.73;;;;;;;;;;4934227;29;20019;-84
2021/09/10 13:59:04;;;;;;;9.20;6.20;;;;;;;;;;4934804;29;20473;-85
2021/09/10 14:01:30;;;;;;;8.80;5.85;;;;;;;;;;4934055;29;20416;-85
2021/09/10 14:03:56;;;;;;;8.52;6.07;;;;;;;;;;4917813;29;20058;-86
2021/09/10 14:06:22;;;;;;;16.27;14.05;;;;;;;;;;4936583;29;20039;-85
2021/09/10 14:08:47;;;;;;;10.10;6.32;;;;;;;;;;4917012;29;20031;-86
2021/09/10 14:11:13;;;;;;;8.03;5.40;;;;;;;;;;4934065;29;20031;-87
2021/09/10 14:13:39;;;;;;;7.97;5.45;;;;;;;;;;4918523;29;20279;-84
2021/09/10 14:16:05;;;;;;;9.13;5.55;;;;;;;;;;4916960;29;20726;-83
2021/09/10 14:18:30;;;;;;;8.63;5.95;;;;;;;;;;4933186;29;20394;-83
2021/09/10 14:20:55;;;;;;;9.03;6.37;;;;;;;;;;4933603;29;20064;-84
2021/09/10 14:23:20;;;;;;;8.00;5.47;;;;;;;;;;4934384;29;20035;-83
2021/09/10 14:25:46;;;;;;;13.18;7.03;;;;;;;;;;4927784;29;20038;-82
2021/09/10 14:28:11;;;;;;;8.50;6.07;;;;;;;;;;4932730;29;20549;-83
2021/09/10 14:30:36;;;;;;;10.03;6.23;;;;;;;;;;4930160;29;20509;-83
2021/09/10 14:33:02;;;;;;;10.30;6.53;;;;;;;;;;4925597;29;20491;-84